createdAt,value
2017-11-20T00:07:58.679Z,8.03
2017-11-20T00:18:01.888Z,9.20
2017-11-20T00:28:05.082Z,8.30
2017-11-20T00:38:09.028Z,7.70
2017-11-20T00:48:12.211Z,7.93
2017-11-20T00:58:15.387Z,8.77
2017-11-20T01:08:18.570Z,7.83
2017-11-20T01:18:22.514Z,8.43
2017-11-20T01:28:26.471Z,10.03
2017-11-20T01:38:30.422Z,8.60
2017-11-20T01:48:34.365Z,8.43
2017-11-20T01:58:37.535Z,8.27
2017-11-20T02:08:40.694Z,8.33
2017-11-20T02:18:43.883Z,8.10
2017-11-20T02:28:47.823Z,6.30
2017-11-20T02:38:50.957Z,8.10
2017-11-20T02:48:54.129Z,7.37
2017-11-20T02:58:58.035Z,5.70
2017-11-20T03:09:01.169Z,6.20
2017-11-20T03:19:04.292Z,8.00
2017-11-20T03:29:07.436Z,6.03
2017-11-20T03:39:10.603Z,6.50
2017-11-20T03:49:14.514Z,6.43
2017-11-20T03:59:17.660Z,6.97
2017-11-20T04:09:20.804Z,6.40
2017-11-20T04:19:23.974Z,6.95
2017-11-20T04:29:27.129Z,6.40
2017-11-20T04:39:30.290Z,7.07
2017-11-20T04:49:33.460Z,8.00
2017-11-20T04:59:36.771Z,7.20
2017-11-20T05:09:39.919Z,7.13
2017-11-20T05:19:43.101Z,7.17
2017-11-20T05:29:46.239Z,6.93
2017-11-20T05:39:50.170Z,9.10
2017-11-20T05:49:53.421Z,6.90
2017-11-20T05:59:56.594Z,7.80
2017-11-20T06:09:59.788Z,6.85
2017-11-20T06:20:02.965Z,7.20
2017-11-20T06:30:06.908Z,6.10
2017-11-20T06:40:10.848Z,9.37
2017-11-20T06:50:14.019Z,8.97
2017-11-20T07:00:17.190Z,8.47
2017-11-20T07:10:20.381Z,9.47
2017-11-20T07:20:24.310Z,9.30
2017-11-20T07:30:45.453Z,9.53
2017-11-20T07:41:06.782Z,10.37
2017-11-20T07:51:09.966Z,10.40
2017-11-20T08:01:13.190Z,11.67
2017-11-20T08:11:16.378Z,12.90
2017-11-20T08:21:19.551Z,13.68
2017-11-20T08:31:22.736Z,14.37
2017-11-20T08:41:26.828Z,16.13
2017-11-20T08:51:30.016Z,15.47
2017-11-20T09:01:33.222Z,15.03
2017-11-20T09:11:36.396Z,16.83
2017-11-20T09:21:39.573Z,16.87
2017-11-20T09:31:42.742Z,15.33
2017-11-20T09:41:45.905Z,14.83
2017-11-20T09:51:49.059Z,14.50
2017-11-20T10:01:52.998Z,16.77
2017-11-20T10:11:56.244Z,16.80
2017-11-20T10:21:59.402Z,13.20
2017-11-20T10:32:03.346Z,13.63
2017-11-20T10:42:07.305Z,16.63
2017-11-20T10:52:11.240Z,15.27
2017-11-20T11:02:14.559Z,15.60
2017-11-20T11:12:17.732Z,14.50
2017-11-20T11:22:20.912Z,14.30
2017-11-20T11:32:24.064Z,13.77
2017-11-20T11:42:27.235Z,13.57
2017-11-20T11:52:30.408Z,12.30
2017-11-20T12:02:34.337Z,11.77
2017-11-20T12:12:37.990Z,10.43
2017-11-20T12:22:41.167Z,11.20
2017-11-20T12:32:44.374Z,11.97
2017-11-20T12:42:47.530Z,12.65
2017-11-20T12:52:50.824Z,13.10
2017-11-20T13:02:53.994Z,12.10
2017-11-20T13:12:57.229Z,13.63
2017-11-20T13:23:00.407Z,12.93
2017-11-20T13:33:03.555Z,11.50
2017-11-20T13:43:07.517Z,11.00
2017-11-20T13:53:11.440Z,11.90
2017-11-20T14:03:14.617Z,12.98
2017-11-20T14:13:18.558Z,14.60
2017-11-20T14:23:21.757Z,13.93
2017-11-20T14:33:24.978Z,15.57
2017-11-20T14:43:28.190Z,14.60
2017-11-20T14:53:32.919Z,17.73
2017-11-20T15:03:36.107Z,16.67
2017-11-20T15:13:40.044Z,16.23
2017-11-20T15:23:43.335Z,16.43
2017-11-20T15:33:46.529Z,17.83
2017-11-20T15:43:49.718Z,16.62
2017-11-20T15:53:53.023Z,18.20
2017-11-20T16:03:56.223Z,17.70
2017-11-20T16:13:59.387Z,18.03
2017-11-20T16:24:02.690Z,19.17
2017-11-20T16:34:06.750Z,18.27
2017-11-20T16:44:10.704Z,20.13
2017-11-20T16:54:13.911Z,23.60
2017-11-20T17:04:17.122Z,24.30
2017-11-20T17:14:20.304Z,22.70
2017-11-20T17:24:23.466Z,25.50
2017-11-20T17:34:26.659Z,25.10
2017-11-20T17:44:29.940Z,21.08
2017-11-20T17:54:33.889Z,29.57
2017-11-20T18:04:37.937Z,26.07
2017-11-20T18:14:41.150Z,25.23
2017-11-20T18:24:44.318Z,28.10
2017-11-20T18:34:48.274Z,22.77
2017-11-20T18:44:52.221Z,25.70
2017-11-20T18:54:55.499Z,22.47
2017-11-20T19:05:13.458Z,19.65
2017-11-20T19:15:16.776Z,18.27
2017-11-20T19:25:19.971Z,18.93
2017-11-20T19:35:23.137Z,19.30
2017-11-20T19:45:26.356Z,19.00
2017-11-20T19:55:29.547Z,19.30
2017-11-20T20:05:33.519Z,19.20
2017-11-20T20:36:41.944Z,14.60
2017-11-20T20:46:45.163Z,14.93
2017-11-20T20:56:48.328Z,13.07
2017-11-20T21:06:56.517Z,14.53
2017-11-20T21:17:00.466Z,14.70
2017-11-20T21:27:03.784Z,13.60
2017-11-20T21:37:07.001Z,13.20
2017-11-20T21:47:10.207Z,11.27
2017-11-20T21:57:13.512Z,10.13
2017-11-20T22:07:16.727Z,8.85
2017-11-20T22:17:19.921Z,7.63
2017-11-20T22:27:23.126Z,6.10
2017-11-20T22:37:26.550Z,7.30
2017-11-20T22:47:29.760Z,5.53
2017-11-20T22:57:32.992Z,4.70
2017-11-20T23:07:36.161Z,4.67
2017-11-20T23:17:39.352Z,4.00
2017-11-20T23:27:42.526Z,2.80
2017-11-20T23:37:45.743Z,3.27
2017-11-20T23:47:48.917Z,3.27
2017-11-20T23:57:52.098Z,3.47
